Time;durP1;ratioP1;P1;durP2;ratioP2;P2;SDS_P1;SDS_P2;PMS_P1;PMS_P2;Temp;Humidity;BMP_temperature;BMP_pressure;BME280_temperature;BME280_humidity;BME280_pressure;Samples;Min_cycle;Max_cycle;Signal;HPM_P1;HPM_P2
2021/08/15 00:01:14;;;;;;;7.45;4.40;;;;;;;19.83;53.10;99968.59;6039190;23;20412;-80
2021/08/15 00:03:42;;;;;;;5.35;4.05;;;;;;;19.83;53.40;99952.56;6039024;23;20352;-80
2021/08/15 00:06:09;;;;;;;9.27;4.30;;;;;;;19.83;53.25;99964.13;6038705;23;20096;-80
2021/08/15 00:08:40;;;;;;;8.23;4.63;;;;;;;19.81;53.86;99959.91;6039059;23;20023;-80
2021/08/15 00:11:07;;;;;;;9.68;5.03;;;;;;;19.82;53.50;99957.09;6039857;23;20102;-80
2021/08/15 00:13:33;;;;;;;6.97;3.88;;;;;;;19.82;53.03;99951.75;6040415;23;20054;-80
2021/08/15 00:16:00;;;;;;;8.75;4.72;;;;;;;19.82;53.49;99953.56;6038792;23;20023;-80
2021/08/15 00:18:28;;;;;;;8.27;3.83;;;;;;;19.81;53.17;99952.72;6038593;23;20043;-80
2021/08/15 00:20:55;;;;;;;8.73;4.45;;;;;;;19.82;52.88;99957.09;6038707;23;20063;-80
2021/08/15 00:23:21;;;;;;;10.50;4.65;;;;;;;19.81;52.58;99941.22;6038964;23;20511;-80
2021/08/15 00:25:48;;;;;;;13.07;4.40;;;;;;;19.81;52.82;99941.22;6038245;23;20098;-81
2021/08/15 00:28:15;;;;;;;9.85;4.47;;;;;;;19.79;52.76;99947.53;6038658;23;20098;-80
2021/08/15 00:30:42;;;;;;;10.85;4.88;;;;;;;19.79;52.95;99952.03;6039798;23;20074;-80
2021/08/15 00:33:09;;;;;;;12.00;5.30;;;;;;;19.79;52.64;99944.00;6038335;23;20023;-80
2021/08/15 00:35:36;;;;;;;8.48;4.07;;;;;;;19.80;52.76;99940.34;6038525;23;20094;-80
2021/08/15 00:38:03;;;;;;;11.02;4.82;;;;;;;19.81;52.99;99947.38;6039207;23;20098;-80
2021/08/15 00:40:33;;;;;;;9.75;4.82;;;;;;;19.81;53.40;99947.38;6038879;23;20055;-81
2021/08/15 00:43:00;;;;;;;12.63;5.03;;;;;;;19.83;52.56;99950.75;6038806;23;20499;-80
2021/08/15 00:45:27;;;;;;;10.93;4.30;;;;;;;19.83;52.81;99948.09;6039674;23;20102;-80
2021/08/15 00:47:53;;;;;;;10.85;4.30;;;;;;;19.83;52.43;99942.75;6038523;23;20067;-80
2021/08/15 00:50:27;;;;;;;12.18;4.47;;;;;;;19.80;52.91;99940.34;6038499;23;20058;-80
2021/08/15 00:56:34;;;;;;;12.40;4.97;;;;;;;19.82;52.66;99929.53;6039927;23;20047;-85
2021/08/15 00:59:12;;;;;;;13.15;5.43;;;;;;;19.74;53.09;99938.28;6038420;23;20094;-85
2021/08/15 01:01:39;;;;;;;11.88;5.10;;;;;;;19.74;53.05;99933.75;6038402;23;20027;-85
2021/08/15 01:04:07;;;;;;;10.23;4.85;;;;;;;19.70;52.76;99918.16;6038571;23;20027;-85
2021/08/15 01:06:38;;;;;;;12.98;5.50;;;;;;;19.64;54.10;99919.59;6038589;23;20395;-86
2021/08/15 01:09:07;;;;;;;14.13;5.78;;;;;;;19.59;53.92;99919.16;6038375;23;20097;-85
2021/08/15 01:11:36;;;;;;;15.50;5.90;;;;;;;19.56;53.99;99914.09;6038320;23;20111;-85
2021/08/15 01:14:06;;;;;;;11.55;5.60;;;;;;;19.51;54.04;99917.22;6039810;23;20102;-84
2021/08/15 01:16:38;;;;;;;21.15;6.20;;;;;;;19.47;54.79;99910.47;6038429;23;20027;-84
2021/08/15 01:19:06;;;;;;;11.57;5.40;;;;;;;19.45;54.40;99915.09;6038735;23;20110;-84
2021/08/15 01:21:46;;;;;;;16.65;6.38;;;;;;;19.37;54.97;99910.47;6038770;23;20459;-84
2021/08/15 01:24:14;;;;;;;12.68;6.00;;;;;;;19.37;54.80;99908.63;6038290;23;20102;-84
2021/08/15 01:26:40;;;;;;;14.70;6.40;;;;;;;19.34;54.48;99900.94;6038328;23;20110;-84
2021/08/15 01:29:33;;;;;;;14.27;6.82;;;;;;;19.24;55.30;99905.41;6038945;23;20062;-84
2021/08/15 01:32:00;;;;;;;13.95;6.78;;;;;;;19.24;54.83;99894.72;6038236;23;20094;-84
2021/08/15 01:34:41;;;;;;;13.93;6.97;;;;;;;19.14;55.79;99894.75;6038641;23;20421;-84
2021/08/15 01:37:10;;;;;;;10.95;6.18;;;;;;;19.14;54.98;99894.75;6038878;23;20059;-85
2021/08/15 01:39:43;;;;;;;12.45;7.15;;;;;;;19.06;56.41;99908.78;6040118;23;20106;-85
2021/08/15 01:42:09;;;;;;;16.17;6.83;;;;;;;19.05;55.57;99901.75;6040306;23;20095;-85
2021/08/15 01:44:36;;;;;;;12.82;6.28;;;;;;;19.00;55.92;99910.13;6039716;23;20024;-85
2021/08/15 01:47:06;;;;;;;13.48;7.05;;;;;;;18.98;55.89;99908.59;6040106;23;20023;-85
2021/08/15 01:49:33;;;;;;;15.45;7.57;;;;;;;18.96;56.17;99903.41;6040453;23;20027;-86
2021/08/15 01:52:01;;;;;;;17.20;7.28;;;;;;;18.95;56.68;99912.38;6040279;23;20479;-85
2021/08/15 01:54:28;;;;;;;16.58;7.72;;;;;;;18.94;56.54;99913.38;6069208;23;20054;-85
2021/08/15 01:56:55;;;;;;;16.67;7.97;;;;;;;18.95;56.92;99914.22;6044856;23;20097;-85
2021/08/15 01:59:26;;;;;;;15.73;7.97;;;;;;;18.95;56.79;99899.03;6044940;23;20102;-85
2021/08/15 02:02:01;;;;;;;14.52;7.25;;;;;;;18.94;57.72;99900.03;6045131;23;20086;-85
2021/08/15 02:04:28;;;;;;;12.90;6.88;;;;;;;18.99;57.19;99899.63;6044175;23;20062;-86
2021/08/15 02:06:57;;;;;;;12.25;7.40;;;;;;;19.01;57.42;99889.66;6044361;23;20458;-85
2021/08/15 02:09:24;;;;;;;17.60;8.77;;;;;;;19.04;56.95;99896.53;6070131;23;20075;-85
2021/08/15 02:11:51;;;;;;;14.98;8.20;;;;;;;19.06;57.20;99894.59;6045153;23;20060;-80
2021/08/15 02:14:18;;;;;;;17.17;9.32;;;;;;;19.07;57.57;99886.47;6044410;23;20054;-80
2021/08/15 02:16:45;;;;;;;18.25;8.93;;;;;;;19.07;57.32;99875.81;6044740;23;20033;-81
2021/08/15 02:19:12;;;;;;;16.52;8.52;;;;;;;19.07;57.21;99873.13;6070111;23;20451;-80
2021/08/15 02:21:44;;;;;;;17.08;9.00;;;;;;;19.05;58.01;99880.41;6044993;23;20101;-80
2021/08/15 02:24:11;;;;;;;17.33;9.15;;;;;;;19.07;57.70;99869.59;6069353;23;20098;-80
2021/08/15 02:26:41;;;;;;;17.80;8.82;;;;;;;19.01;58.39;99873.63;6045103;23;20026;-80
2021/08/15 02:29:08;;;;;;;25.08;9.32;;;;;;;19.02;57.50;99864.66;6044931;23;20026;-80
2021/08/15 02:31:37;;;;;;;18.27;8.95;;;;;;;18.99;58.18;99855.09;6044515;23;20026;-80
2021/08/15 02:34:04;;;;;;;17.00;9.80;;;;;;;19.00;57.88;99855.97;6045206;23;20395;-84
2021/08/15 02:36:31;;;;;;;15.32;8.75;;;;;;;18.98;57.63;99860.56;6044536;23;20066;-84
2021/08/15 02:39:03;;;;;;;15.70;9.73;;;;;;;18.94;59.21;99859.16;6069631;23;20105;-84
2021/08/15 02:41:29;;;;;;;16.90;8.65;;;;;;;18.96;57.77;99859.88;6044794;23;20461;-84
2021/08/15 02:43:56;;;;;;;15.00;9.25;;;;;;;18.95;58.35;99855.53;6044798;23;20023;-84
2021/08/15 02:49:40;;;;;;;18.73;9.75;;;;;;;18.92;58.24;99853.16;6069326;23;20102;-84
2021/08/15 02:52:23;;;;;;;24.30;10.10;;;;;;;18.84;60.25;99849.34;6044562;23;20023;-84
2021/08/15 02:54:50;;;;;;;14.55;9.27;;;;;;;18.88;58.25;99845.41;6039884;23;20062;-84
2021/08/15 02:57:16;;;;;;;12.70;7.85;;;;;;;18.88;58.19;99842.75;6039445;23;20030;-84
2021/08/15 03:00:19;;;;;;;15.35;9.43;;;;;;;18.83;59.17;99850.31;6039339;23;20066;-84
2021/08/15 03:02:46;;;;;;;21.77;10.23;;;;;;;18.88;58.40;99842.75;6039617;23;20094;-84
2021/08/15 03:05:15;;;;;;;16.25;9.77;;;;;;;18.88;58.61;99837.41;6039145;23;20027;-80
2021/08/15 03:07:42;;;;;;;18.02;9.07;;;;;;;18.89;58.26;99833.75;6039322;23;20062;-80
2021/08/15 03:10:49;;;;;;;18.05;8.90;;;;;;;18.86;58.97;99833.19;6039905;23;20391;-80
2021/08/15 03:13:16;;;;;;;15.75;9.55;;;;;;;18.92;58.25;99831.81;6041063;23;20388;-80
2021/08/15 03:15:45;;;;;;;15.02;9.38;;;;;;;18.89;58.95;99828.41;6038835;23;20094;-80
2021/08/15 03:18:18;;;;;;;21.40;10.75;;;;;;;18.89;58.35;99828.41;6039933;23;20035;-80
2021/08/15 03:21:09;;;;;;;17.95;9.73;;;;;;;18.84;58.76;99822.66;6039571;23;20497;-85
2021/08/15 03:23:36;;;;;;;15.23;9.05;;;;;;;18.89;58.32;99820.41;6039035;23;20065;-86
2021/08/15 03:26:19;;;;;;;17.95;9.43;;;;;;;18.84;58.95;99816.50;6040214;23;20063;-85
2021/08/15 03:28:46;;;;;;;19.60;9.95;;;;;;;18.88;58.25;99812.59;6039028;23;20111;-85
2021/08/15 03:31:14;;;;;;;15.18;8.80;;;;;;;18.87;58.69;99811.72;6038887;23;20098;-85
2021/08/15 03:33:41;;;;;;;19.10;9.30;;;;;;;18.90;58.43;99813.28;6038801;23;20031;-80
2021/08/15 03:36:37;;;;;;;17.63;9.70;;;;;;;18.85;59.29;99804.84;6038958;23;20034;-80
2021/08/15 03:39:04;;;;;;;21.50;9.93;;;;;;;18.89;58.67;99800.94;6039095;23;20094;-81
2021/08/15 03:41:33;;;;;;;16.38;8.57;;;;;;;18.87;58.88;99790.41;6039334;23;20388;-81
2021/08/15 03:44:00;;;;;;;13.90;9.00;;;;;;;18.87;58.56;99790.41;6039213;23;20459;-80
2021/08/15 03:46:29;;;;;;;17.15;9.52;;;;;;;18.85;58.71;99784.38;6039283;23;20098;-80
2021/08/15 03:48:56;;;;;;;15.52;8.35;;;;;;;18.86;58.39;99775.38;6041044;23;20347;-85
2021/08/15 03:52:08;;;;;;;15.25;8.82;;;;;;;18.81;59.17;99788.31;6038903;23;20098;-85
2021/08/15 03:54:35;;;;;;;13.93;8.38;;;;;;;18.86;58.38;99796.72;6038544;23;20494;-86
2021/08/15 03:57:02;;;;;;;19.88;9.82;;;;;;;18.83;58.72;99791.66;6038739;23;20054;-85
2021/08/15 03:59:28;;;;;;;15.63;9.55;;;;;;;18.80;58.77;99778.59;6038454;23;20102;-85
2021/08/15 04:01:55;;;;;;;17.92;10.07;;;;;;;18.77;58.69;99786.91;6040066;23;20066;-85
2021/08/15 04:04:22;;;;;;;17.02;9.23;;;;;;;18.74;58.34;99781.84;6039481;23;20034;-84
2021/08/15 04:07:28;;;;;;;18.63;8.60;;;;;;;18.67;59.10;99775.38;6039182;23;20027;-84
2021/08/15 04:09:55;;;;;;;15.80;8.27;;;;;;;18.70;58.35;99772.44;6040061;23;20094;-84
2021/08/15 04:12:46;;;;;;;16.15;8.52;;;;;;;18.62;59.26;99773.97;6038608;23;20067;-84
2021/08/15 04:15:13;;;;;;;14.02;8.63;;;;;;;18.66;58.59;99773.69;6038637;23;20069;-84
2021/08/15 04:17:47;;;;;;;17.10;9.13;;;;;;;18.61;59.34;99764.28;6038975;23;20035;-83
2021/08/15 04:20:15;;;;;;;16.67;8.90;;;;;;;18.64;59.00;99760.50;6038823;23;20027;-83
2021/08/15 04:22:52;;;;;;;18.35;9.20;;;;;;;18.60;59.71;99767.09;6038687;23;20106;-83
2021/08/15 04:25:19;;;;;;;15.80;9.60;;;;;;;18.64;58.86;99767.69;6038551;23;20059;-83
2021/08/15 04:27:46;;;;;;;16.52;10.05;;;;;;;18.62;59.28;99773.97;6038503;23;20058;-83
2021/08/15 04:30:23;;;;;;;15.02;9.10;;;;;;;18.57;59.73;99773.53;6038692;23;20035;-83
2021/08/15 04:32:50;;;;;;;15.40;8.85;;;;;;;18.59;59.01;99760.94;6038426;23;20103;-84
2021/08/15 04:35:45;;;;;;;15.00;8.85;;;;;;;18.55;59.89;99761.34;6038599;23;20106;-83
2021/08/15 04:38:12;;;;;;;17.35;8.85;;;;;;;18.58;58.98;99775.22;6038862;23;20054;-86
2021/08/15 04:41:16;;;;;;;16.67;9.30;;;;;;;18.54;59.59;99781.81;6038516;23;20058;-86
2021/08/15 04:43:43;;;;;;;17.02;10.10;;;;;;;18.57;58.97;99778.03;6038130;23;20034;-86
2021/08/15 04:46:28;;;;;;;17.90;9.48;;;;;;;18.52;60.06;99785.59;6038526;23;20094;-85
2021/08/15 04:48:54;;;;;;;16.67;9.45;;;;;;;18.54;59.35;99781.81;6038606;23;20028;-85
2021/08/15 04:51:36;;;;;;;16.60;8.77;;;;;;;18.50;60.13;99785.75;6038439;23;20059;-86
2021/08/15 04:54:10;;;;;;;15.93;9.07;;;;;;;18.52;60.15;99762.47;6038308;23;20062;-85
2021/08/15 04:56:37;;;;;;;16.67;10.00;;;;;;;18.52;59.32;99761.63;6038785;23;20412;-86
2021/08/15 04:59:04;;;;;;;19.63;10.18;;;;;;;18.52;59.43;99774.94;6038264;23;20027;-85
2021/08/15 05:01:56;;;;;;;18.52;10.07;;;;;;;18.47;60.72;99788.69;6038711;23;20098;-86
2021/08/15 05:04:23;;;;;;;17.60;9.00;;;;;;;18.51;59.38;99782.13;6038590;23;20046;-85
2021/08/15 05:07:03;;;;;;;19.42;9.55;;;;;;;18.48;60.37;99793.03;6038701;23;20632;-86
2021/08/15 05:09:30;;;;;;;18.42;9.45;;;;;;;18.53;59.84;99785.47;6038361;23;20106;-85
2021/08/15 05:12:09;;;;;;;21.00;10.43;;;;;;;18.50;60.41;99785.75;6039744;23;20067;-85
2021/08/15 05:14:49;;;;;;;22.05;9.75;;;;;;;18.52;60.44;99783.78;6039818;23;20098;-85
2021/08/15 05:17:15;;;;;;;18.98;10.80;;;;;;;18.58;59.82;99798.41;6040352;23;20023;-85
2021/08/15 05:19:55;;;;;;;16.70;9.80;;;;;;;18.57;60.59;99799.34;6040582;23;20467;-86
2021/08/15 05:22:22;;;;;;;20.52;10.75;;;;;;;18.64;60.12;99795.16;6040797;23;20098;-85
2021/08/15 05:25:04;;;;;;;21.50;10.70;;;;;;;18.65;60.50;99780.03;6040261;23;20050;-86
2021/08/15 05:27:30;;;;;;;20.13;11.40;;;;;;;18.72;59.74;99784.63;6040600;23;20414;-85
2021/08/15 05:29:57;;;;;;;17.33;11.43;;;;;;;18.78;60.13;99785.91;6040493;23;20058;-85
2021/08/15 05:32:36;;;;;;;22.52;12.05;;;;;;;18.81;60.77;99788.31;6041467;23;20085;-85
2021/08/15 05:35:10;;;;;;;22.45;12.05;;;;;;;18.88;60.79;99785.91;6039800;23;20066;-86
2021/08/15 05:37:40;;;;;;;24.58;12.63;;;;;;;18.94;60.08;99779.16;6040172;23;20058;-86
2021/08/15 05:40:08;;;;;;;24.42;12.82;;;;;;;18.99;60.12;99784.94;6039888;23;20023;-86
2021/08/15 05:42:38;;;;;;;27.13;13.70;;;;;;;19.03;60.32;99786.31;6040053;23;20119;-85
2021/08/15 05:45:05;;;;;;;22.58;13.35;;;;;;;19.07;59.94;99773.56;6040356;23;20395;-85
2021/08/15 05:47:39;;;;;;;22.83;14.00;;;;;;;19.09;60.57;99774.25;6041842;23;20102;-86
2021/08/15 05:50:06;;;;;;;27.95;14.32;;;;;;;19.16;59.76;99769.19;6039835;23;20023;-86
2021/08/15 05:52:34;;;;;;;22.00;13.52;;;;;;;19.19;59.89;99769.75;6040220;23;20404;-85
2021/08/15 05:55:00;;;;;;;20.50;13.55;;;;;;;19.23;59.87;99771.16;6039688;23;20110;-79
2021/08/15 05:57:32;;;;;;;26.00;13.85;;;;;;;19.25;60.09;99773.69;6041394;23;20030;-79
2021/08/15 05:59:59;;;;;;;20.27;13.10;;;;;;;19.31;59.78;99762.44;6040360;23;20102;-79
2021/08/15 06:02:28;;;;;;;21.52;13.38;;;;;;;19.34;60.38;99769.28;6039758;23;20031;-80
2021/08/15 06:04:55;;;;;;;26.20;14.63;;;;;;;19.40;59.91;99756.22;6040117;23;20099;-80
2021/08/15 06:10:45;;;;;;;27.13;14.77;;;;;;;19.56;59.51;99738.75;6041493;23;20111;-80
2021/08/15 06:13:25;;;;;;;31.67;14.75;;;;;;;19.57;59.56;99743.09;6041469;23;20406;-80
2021/08/15 06:15:51;;;;;;;29.23;15.15;;;;;;;19.65;59.29;99745.03;6040139;23;20031;-80
2021/08/15 06:18:22;;;;;;;24.85;14.40;;;;;;;19.71;59.48;99735.59;6040110;23;20351;-79
2021/08/15 06:20:49;;;;;;;28.75;16.15;;;;;;;19.77;59.05;99741.16;6040454;23;20062;-80
2021/08/15 06:23:15;;;;;;;26.92;16.02;;;;;;;19.82;59.20;99759.44;6039459;23;20019;-80
2021/08/15 06:25:42;;;;;;;25.48;16.35;;;;;;;19.87;59.16;99767.84;6039845;23;20403;-80
2021/08/15 06:28:12;;;;;;;23.08;15.13;;;;;;;19.91;59.38;99773.72;6040192;23;20061;-80
2021/08/15 06:30:39;;;;;;;24.48;14.55;;;;;;;19.95;58.74;99756.41;6040038;23;20023;-80
2021/08/15 06:33:49;;;;;;;27.05;15.98;;;;;;;19.93;59.14;99759.22;6039638;23;20023;-80
2021/08/15 06:36:16;;;;;;;23.40;14.88;;;;;;;20.02;58.47;99764.69;6041206;23;20101;-80
2021/08/15 06:39:07;;;;;;;26.58;16.05;;;;;;;20.00;58.62;99756.00;6039773;23;20114;-80
2021/08/15 06:41:59;;;;;;;26.27;14.68;;;;;;;20.03;58.73;99737.84;6040276;23;20047;-80
2021/08/15 06:44:26;;;;;;;23.95;14.77;;;;;;;20.13;58.63;99734.25;6039427;23;20058;-80
2021/08/15 06:46:56;;;;;;;22.13;15.32;;;;;;;20.16;58.98;99733.97;6040175;23;20058;-79
2021/08/15 06:49:23;;;;;;;26.83;17.02;;;;;;;20.23;58.70;99739.53;6040029;23;20395;-80
2021/08/15 06:52:08;;;;;;;25.77;17.45;;;;;;;20.23;58.46;99748.41;6039438;23;20072;-80
2021/08/15 06:54:35;;;;;;;31.73;18.38;;;;;;;20.32;58.12;99746.66;6039271;23;20102;-80
2021/08/15 06:57:06;;;;;;;28.60;17.92;;;;;;;20.32;58.24;99743.97;6039303;23;20102;-80
2021/08/15 06:59:32;;;;;;;28.55;17.77;;;;;;;20.33;58.18;99737.63;6039486;23;20102;-85
2021/08/15 07:02:13;;;;;;;30.98;19.58;;;;;;;20.30;58.38;99736.09;6039733;23;20493;-85
2021/08/15 07:04:40;;;;;;;28.15;18.90;;;;;;;20.36;58.08;99742.69;6039985;23;20478;-86
2021/08/15 07:10:31;;;;;;;23.70;16.83;;;;;;;20.41;58.22;99736.91;6040608;23;20027;-80
2021/08/15 07:12:58;;;;;;;29.42;18.80;;;;;;;20.43;58.17;99745.59;6039252;23;20027;-80
2021/08/15 07:15:28;;;;;;;27.42;18.83;;;;;;;20.46;58.28;99734.59;6039148;23;20031;-80
2021/08/15 07:17:56;;;;;;;30.17;18.65;;;;;;;20.50;58.39;99732.44;6039657;23;20059;-80
2021/08/15 07:20:23;;;;;;;33.13;18.77;;;;;;;20.53;58.31;99740.16;6039804;23;20094;-80
2021/08/15 07:22:57;;;;;;;31.67;19.35;;;;;;;20.54;58.48;99732.00;6039096;23;20063;-82
2021/08/15 07:25:28;;;;;;;25.40;18.48;;;;;;;20.62;58.00;99743.75;6039310;23;20062;-82
2021/08/15 07:27:56;;;;;;;27.95;17.92;;;;;;;20.66;58.01;99737.09;6039210;23;20102;-80
2021/08/15 07:30:25;;;;;;;32.50;19.67;;;;;;;20.68;58.00;99748.50;6039051;23;20098;-80
2021/08/15 07:33:00;;;;;;;28.13;18.52;;;;;;;20.68;57.95;99732.44;6038970;23;20051;-82
2021/08/15 07:35:28;;;;;;;28.33;18.73;;;;;;;20.73;58.14;99724.78;6038919;23;20065;-82
2021/08/15 07:38:04;;;;;;;27.02;18.75;;;;;;;20.76;58.11;99732.53;6039373;23;20339;-80
2021/08/15 07:40:31;;;;;;;27.17;19.08;;;;;;;20.84;57.78;99731.72;6039018;23;20027;-80
2021/08/15 07:43:10;;;;;;;28.70;19.58;;;;;;;20.86;58.07;99737.75;6039486;23;20447;-85
2021/08/15 07:45:38;;;;;;;28.85;19.33;;;;;;;20.94;58.06;99737.03;6039455;23;20098;-85
2021/08/15 07:48:06;;;;;;;29.88;19.73;;;;;;;20.96;57.98;99730.53;6039015;23;20066;-85
2021/08/15 07:50:39;;;;;;;28.85;19.35;;;;;;;21.01;57.93;99732.72;6040541;23;20072;-86
2021/08/15 07:53:18;;;;;;;27.67;19.25;;;;;;;21.03;58.04;99724.53;5931011;24;20024;-82
2021/08/15 07:55:48;;;;;;;25.85;17.83;;;;;;;21.09;57.99;99711.38;5930865;24;20070;-80
2021/08/15 07:58:16;;;;;;;28.77;17.75;;;;;;;21.16;58.02;99716.91;5930878;24;20099;-81
2021/08/15 08:00:44;;;;;;;30.67;18.92;;;;;;;21.22;58.08;99708.28;5930666;24;20035;-81
2021/08/15 08:03:12;;;;;;;28.65;18.58;;;;;;;21.29;58.06;99710.31;5931070;24;20037;-80
2021/08/15 08:05:41;;;;;;;25.40;17.70;;;;;;;21.35;58.05;99702.47;5953222;24;20068;-80
2021/08/15 08:08:24;;;;;;;30.92;17.73;;;;;;;21.39;58.46;99716.41;5930581;24;20028;-81
2021/08/15 08:10:53;;;;;;;28.30;17.45;;;;;;;21.52;58.15;99715.94;5963691;23;20114;-81
2021/08/15 08:13:22;;;;;;;26.52;17.70;;;;;;;21.58;57.93;99706.44;6038702;23;20027;-80
2021/08/15 08:15:51;;;;;;;26.85;16.08;;;;;;;21.64;57.83;99705.78;6038516;23;20027;-80
2021/08/15 08:18:21;;;;;;;24.13;14.25;;;;;;;21.74;57.86;99703.88;6038709;23;20079;-80
2021/08/15 08:20:48;;;;;;;25.35;14.65;;;;;;;21.85;57.92;99704.56;6039016;23;20463;-80
2021/08/15 08:23:16;;;;;;;28.58;15.90;;;;;;;21.93;57.47;99707.25;6040309;23;20098;-80
2021/08/15 08:25:45;;;;;;;24.20;15.70;;;;;;;21.99;57.01;99703.91;6038385;23;20062;-80
2021/08/15 08:28:30;;;;;;;23.40;15.35;;;;;;;22.01;56.77;99703.75;6039236;23;20066;-80
2021/08/15 08:30:57;;;;;;;21.70;14.88;;;;;;;22.10;56.75;99704.63;6039098;23;20045;-81
2021/08/15 08:33:31;;;;;;;27.75;16.08;;;;;;;22.09;56.84;99709.16;6038761;23;20034;-80
2021/08/15 08:35:58;;;;;;;23.35;15.50;;;;;;;22.15;56.56;99702.28;6038351;23;20099;-80
2021/08/15 08:38:37;;;;;;;22.42;15.02;;;;;;;22.13;56.69;99704.31;6039327;23;20027;-80
2021/08/15 08:41:10;;;;;;;26.35;15.13;;;;;;;22.21;57.04;99690.88;6038713;23;20023;-80
2021/08/15 08:43:40;;;;;;;25.35;14.10;;;;;;;22.26;57.15;99690.41;6040289;23;20483;-80
2021/08/15 08:46:12;;;;;;;22.05;14.88;;;;;;;22.33;57.30;99685.22;6038324;23;20031;-80
2021/08/15 08:48:42;;;;;;;27.85;15.55;;;;;;;22.41;56.75;99677.19;6038684;23;20031;-80
2021/08/15 08:51:09;;;;;;;18.63;12.10;;;;;;;22.51;57.26;99672.47;6038461;23;20058;-80
2021/08/15 08:53:38;;;;;;;21.45;13.05;;;;;;;22.61;56.81;99669.66;6038289;23;20102;-80
2021/08/15 08:56:05;;;;;;;18.70;12.60;;;;;;;22.71;56.62;99669.50;6038265;23;20106;-80
2021/08/15 08:58:32;;;;;;;21.00;12.98;;;;;;;22.83;56.40;99661.94;6037435;23;20059;-80
2021/08/15 09:01:00;;;;;;;23.02;13.07;;;;;;;22.93;56.45;99674.31;6036335;23;20102;-80
2021/08/15 09:03:28;;;;;;;19.55;12.13;;;;;;;23.06;56.21;99665.75;6038562;23;20031;-80
2021/08/15 09:05:57;;;;;;;18.55;11.43;;;;;;;23.18;56.55;99664.38;6037263;23;20094;-80
2021/08/15 09:08:30;;;;;;;15.95;11.10;;;;;;;23.31;56.40;99658.44;6038274;23;20328;-80
2021/08/15 09:11:51;;;;;;;18.73;11.55;;;;;;;23.43;55.67;99658.91;6038772;23;20083;-81
2021/08/15 09:14:23;;;;;;;15.75;11.23;;;;;;;23.65;55.46;99653.78;6037627;23;20058;-86
2021/08/15 09:17:00;;;;;;;20.85;12.38;;;;;;;23.77;55.83;99659.63;6038008;23;20027;-85
2021/08/15 09:19:39;;;;;;;16.17;11.38;;;;;;;23.90;55.31;99653.66;6038535;23;20451;-81
2021/08/15 09:22:27;;;;;;;13.98;10.27;;;;;;;24.03;54.61;99647.69;6038403;23;20082;-81
2021/08/15 09:25:13;;;;;;;17.92;11.35;;;;;;;24.21;54.46;99655.47;6038060;23;20059;-86
2021/08/15 09:27:56;;;;;;;18.00;11.00;;;;;;;24.36;53.57;99657.41;6038407;23;20061;-86
2021/08/15 09:30:24;;;;;;;18.00;11.77;;;;;;;24.50;53.55;99645.84;6038233;23;20027;-86
2021/08/15 09:32:54;;;;;;;19.05;12.63;;;;;;;24.59;52.69;99654.66;6038223;23;20118;-86
2021/08/15 09:35:31;;;;;;;17.27;11.45;;;;;;;24.63;51.95;99647.91;6037931;23;20124;-80
2021/08/15 09:38:06;;;;;;;16.45;11.10;;;;;;;24.70;52.30;99646.16;6038910;23;20455;-80
2021/08/15 09:40:39;;;;;;;15.60;11.35;;;;;;;24.80;52.32;99645.06;6038900;23;20031;-80
2021/08/15 09:43:10;;;;;;;;;;;;;;;24.88;53.08;99647.69;6038780;23;20094;-80
2021/08/15 09:45:42;;;;;;;18.98;11.13;;;;;;;25.04;51.29;99654.75;6038221;23;19960;-80
2021/08/15 09:48:27;;;;;;;15.80;10.15;;;;;;;25.11;51.75;99642.22;6038743;23;20359;-81
2021/08/15 09:51:17;;;;;;;15.85;9.52;;;;;;;25.18;51.15;99644.16;6038271;23;20102;-80
2021/08/15 09:53:59;;;;;;;15.65;10.27;;;;;;;25.26;51.64;99640.56;6037874;23;20031;-86
2021/08/15 09:56:40;;;;;;;14.60;9.82;;;;;;;25.34;51.27;99635.88;6038164;23;20030;-81
2021/08/15 09:59:19;;;;;;;12.93;7.30;;;;;;;25.42;50.15;99637.63;6039495;23;20106;-81
2021/08/15 10:01:51;;;;;;;8.63;5.85;;;;;;;25.52;49.30;99640.03;6040316;23;20127;-86
2021/08/15 10:04:22;;;;;;;11.47;5.70;;;;;;;25.57;48.65;99634.13;6039945;23;20026;-87
2021/08/15 10:06:51;;;;;;;8.27;5.18;;;;;;;25.62;48.63;99651.41;6040305;23;20024;-86
2021/08/15 10:09:20;;;;;;;8.27;4.88;;;;;;;25.66;48.05;99648.31;6039881;23;20058;-86
2021/08/15 10:11:47;;;;;;;9.57;4.60;;;;;;;25.68;48.04;99632.78;6039830;23;20102;-87
2021/08/15 10:14:20;;;;;;;9.88;5.35;;;;;;;25.69;47.77;99631.75;6040195;23;20030;-86
2021/08/15 10:17:02;;;;;;;6.88;4.15;;;;;;;25.68;47.68;99630.91;6039645;23;20083;-86
2021/08/15 10:20:25;;;;;;;7.18;4.40;;;;;;;25.70;47.64;99622.66;6040199;23;20332;-81
2021/08/15 10:26:24;;;;;;;5.20;3.42;;;;;;;25.89;47.17;99618.50;6041077;23;20063;-81
2021/08/15 10:32:21;;;;;;;5.05;2.95;;;;;;;26.10;45.66;99614.97;6040950;23;20063;-81
2021/08/15 10:35:01;;;;;;;6.00;3.33;;;;;;;26.21;46.51;99610.94;6039444;23;20039;-82
2021/08/15 10:37:28;;;;;;;6.35;3.47;;;;;;;26.37;46.47;99601.75;6040107;23;20067;-82
2021/08/15 10:40:02;;;;;;;5.38;3.25;;;;;;;26.50;45.74;99600.19;6039584;23;20101;-81
2021/08/15 10:42:39;;;;;;;7.30;3.85;;;;;;;26.62;44.68;99593.22;6039499;23;20058;-82
2021/08/15 10:45:12;;;;;;;;;;;;;;;26.73;44.85;99591.81;6040154;23;20058;-82
2021/08/15 10:47:41;;;;;;;7.00;3.35;;;;;;;26.94;45.64;99598.16;6039820;23;20322;-82
2021/08/15 10:50:09;;;;;;;7.50;4.00;;;;;;;27.04;45.03;99590.56;6039674;23;20027;-82
2021/08/15 10:52:37;;;;;;;11.65;4.25;;;;;;;27.16;44.82;99587.28;6039828;23;20055;-82
2021/08/15 10:55:15;;;;;;;9.23;4.72;;;;;;;27.28;44.48;99587.56;6039724;23;20332;-81
2021/08/15 10:57:51;;;;;;;5.47;3.78;;;;;;;27.45;44.18;99585.31;6039563;23;20038;-80
2021/08/15 11:00:31;;;;;;;7.28;4.22;;;;;;;27.62;43.77;99577.69;6039663;23;20038;-81
2021/08/15 11:03:21;;;;;;;6.28;4.10;;;;;;;27.84;44.90;99582.91;6039399;23;20023;-82
2021/08/15 11:05:50;;;;;;;6.63;3.85;;;;;;;28.12;44.47;99590.03;6018605;23;20473;-82
2021/08/15 11:08:32;;;;;;;6.80;4.35;;;;;;;28.34;44.25;99579.03;6039162;23;20070;-87
2021/08/15 11:11:11;;;;;;;8.60;4.40;;;;;;;28.61;43.56;99579.84;6039746;23;20410;-87
2021/08/15 11:13:38;;;;;;;6.90;3.97;;;;;;;28.87;43.49;99575.41;6039086;23;20065;-87
2021/08/15 11:16:27;;;;;;;7.70;3.80;;;;;;;29.11;42.61;99574.91;6039158;23;20024;-84
2021/08/15 11:19:09;;;;;;;4.72;3.20;;;;;;;29.50;42.30;99574.94;6039496;23;20046;-79
2021/08/15 11:22:13;;;;;;;3.83;3.28;;;;;;;29.97;42.08;99573.84;6039150;23;20039;-80
2021/08/15 11:24:43;;;;;;;7.65;3.53;;;;;;;30.52;39.33;99573.16;6039480;23;20027;-79
2021/08/15 11:27:14;;;;;;;9.48;3.25;;;;;;;30.93;38.88;99556.44;6039241;23;20066;-79
2021/08/15 11:29:46;;;;;;;6.35;3.40;;;;;;;31.23;37.72;99552.94;6040535;23;20059;-79
2021/08/15 11:32:18;;;;;;;6.93;3.53;;;;;;;31.42;37.42;99542.88;6039458;23;20098;-79
2021/08/15 11:34:55;;;;;;;6.45;3.47;;;;;;;31.51;37.23;99535.19;6038840;23;20098;-79
2021/08/15 11:37:25;;;;;;;5.15;3.22;;;;;;;31.65;37.50;99537.75;6039135;23;20070;-79
2021/08/15 11:39:53;;;;;;;6.00;3.42;;;;;;;31.80;37.46;99538.09;6039060;23;20062;-79
2021/08/15 11:42:25;;;;;;;6.10;3.75;;;;;;;32.03;37.64;99536.50;6039108;23;20023;-85
2021/08/15 11:45:03;;;;;;;6.70;3.88;;;;;;;32.42;37.76;99536.03;6039626;23;20106;-85
2021/08/15 11:47:32;;;;;;;7.68;4.18;;;;;;;32.89;37.11;99537.06;6039750;23;20122;-84
2021/08/15 11:50:01;;;;;;;5.10;3.47;;;;;;;33.30;35.69;99526.13;6039524;23;20055;-80
2021/08/15 11:52:36;;;;;;;4.25;2.85;;;;;;;33.71;36.78;99522.50;6039948;23;20062;-79
2021/08/15 11:55:25;;;;;;;6.80;3.53;;;;;;;34.12;36.84;99528.63;6037950;23;20062;-79
2021/08/15 11:57:53;;;;;;;5.57;3.60;;;;;;;34.57;36.02;99515.84;6040652;23;20058;-81
2021/08/15 12:00:32;;;;;;;6.03;3.00;;;;;;;34.94;35.04;99516.34;6038849;23;20069;-81
2021/08/15 12:03:05;;;;;;;5.30;3.20;;;;;;;35.34;33.98;99512.41;6039269;23;20027;-81
2021/08/15 12:05:36;;;;;;;5.50;3.20;;;;;;;35.68;32.94;99516.81;6038675;23;20098;-79
2021/08/15 12:08:08;;;;;;;4.43;2.90;;;;;;;35.94;31.45;99521.66;6039073;23;20416;-79
2021/08/15 12:10:41;;;;;;;4.78;2.80;;;;;;;36.07;30.38;99510.25;6039668;23;20083;-80